sensor_id;sensor_type;location;lat;lon;timestamp;pressure;altitude;pressure_sealevel;temperature;humidity
22181;BME280;11256;50.830;12.834;2023-12-04T00:01:54;97994.78;;;-2.54;80.38
22181;BME280;11256;50.830;12.834;2023-12-04T00:06:55;97976.31;;;-2.62;80.12
22181;BME280;11256;50.830;12.834;2023-12-04T00:11:55;97985.38;;;-2.56;79.69
22181;BME280;11256;50.830;12.834;2023-12-04T00:16:55;97990.66;;;-2.56;80.08
22181;BME280;11256;50.830;12.834;2023-12-04T00:21:56;97984.28;;;-2.62;79.51
22181;BME280;11256;50.830;12.834;2023-12-04T00:26:56;97978.34;;;-2.64;79.58
22181;BME280;11256;50.830;12.834;2023-12-04T00:31:56;97975.84;;;-2.72;79.63
22181;BME280;11256;50.830;12.834;2023-12-04T00:36:57;97968.88;;;-2.73;79.58
22181;BME280;11256;50.830;12.834;2023-12-04T00:41:57;97968.41;;;-2.83;79.80
22181;BME280;11256;50.830;12.834;2023-12-04T00:46:58;97997.41;;;-2.75;79.63
22181;BME280;11256;50.830;12.834;2023-12-04T00:51:58;97995.13;;;-2.78;79.14
22181;BME280;11256;50.830;12.834;2023-12-04T00:56:59;97978.34;;;-2.85;79.57
22181;BME280;11256;50.830;12.834;2023-12-04T01:01:59;97977.09;;;-2.89;79.70
22181;BME280;11256;50.830;12.834;2023-12-04T01:06:59;97973.63;;;-2.89;79.42
22181;BME280;11256;50.830;12.834;2023-12-04T01:12:00;97974.84;;;-2.92;79.59
22181;BME280;11256;50.830;12.834;2023-12-04T01:17:00;97967.66;;;-2.98;79.37
22181;BME280;11256;50.830;12.834;2023-12-04T01:22:00;97971.94;;;-2.97;78.90
22181;BME280;11256;50.830;12.834;2023-12-04T01:27:01;97961.94;;;-2.95;78.67
22181;BME280;11256;50.830;12.834;2023-12-04T01:32:01;97953.97;;;-3.01;78.64
22181;BME280;11256;50.830;12.834;2023-12-04T01:37:01;97967.00;;;-3.00;78.69
22181;BME280;11256;50.830;12.834;2023-12-04T01:42:02;97953.97;;;-3.01;78.76
22181;BME280;11256;50.830;12.834;2023-12-04T01:47:03;97948.66;;;-3.01;78.35
22181;BME280;11256;50.830;12.834;2023-12-04T01:52:04;97948.22;;;-3.05;78.17
22181;BME280;11256;50.830;12.834;2023-12-04T01:57:05;97921.22;;;-3.15;78.42
22181;BME280;11256;50.830;12.834;2023-12-04T02:02:06;97929.41;;;-3.10;78.15
22181;BME280;11256;50.830;12.834;2023-12-04T02:07:07;97912.63;;;-3.17;78.45
22181;BME280;11256;50.830;12.834;2023-12-04T02:12:09;97914.25;;;-3.16;78.13
22181;BME280;11256;50.830;12.834;2023-12-04T02:17:10;97914.03;;;-3.21;78.13
22181;BME280;11256;50.830;12.834;2023-12-04T02:22:11;97881.91;;;-3.32;78.15
22181;BME280;11256;50.830;12.834;2023-12-04T02:27:20;97887.28;;;-3.26;78.17
22181;BME280;11256;50.830;12.834;2023-12-04T02:32:23;97873.59;;;-3.29;77.99
22181;BME280;11256;50.830;12.834;2023-12-04T02:37:25;97857.44;;;-3.34;78.08
22181;BME280;11256;50.830;12.834;2023-12-04T02:42:26;97845.53;;;-3.45;78.00
22181;BME280;11256;50.830;12.834;2023-12-04T02:47:27;97870.00;;;-3.43;77.86
22181;BME280;11256;50.830;12.834;2023-12-04T02:52:28;97847.91;;;-3.50;78.25
22181;BME280;11256;50.830;12.834;2023-12-04T02:57:28;97857.75;;;-3.44;77.98
22181;BME280;11256;50.830;12.834;2023-12-04T03:02:29;97859.78;;;-3.46;78.17
22181;BME280;11256;50.830;12.834;2023-12-04T03:07:29;97833.63;;;-3.55;78.18
22181;BME280;11256;50.830;12.834;2023-12-04T03:12:29;97833.78;;;-3.57;77.87
22181;BME280;11256;50.830;12.834;2023-12-04T03:17:30;97849.75;;;-3.50;78.41
22181;BME280;11256;50.830;12.834;2023-12-04T03:22:30;97837.47;;;-3.58;77.94
22181;BME280;11256;50.830;12.834;2023-12-04T03:27:30;97841.38;;;-3.54;78.23
22181;BME280;11256;50.830;12.834;2023-12-04T03:32:30;97837.72;;;-3.53;77.98
22181;BME280;11256;50.830;12.834;2023-12-04T03:37:31;97828.88;;;-3.60;78.04
22181;BME280;11256;50.830;12.834;2023-12-04T03:42:31;97837.50;;;-3.72;78.08
22181;BME280;11256;50.830;12.834;2023-12-04T03:47:31;97825.34;;;-3.67;78.28
22181;BME280;11256;50.830;12.834;2023-12-04T03:52:32;97811.50;;;-3.69;77.97
22181;BME280;11256;50.830;12.834;2023-12-04T03:57:32;97820.03;;;-3.67;77.84
22181;BME280;11256;50.830;12.834;2023-12-04T04:02:32;97804.78;;;-3.65;77.98
22181;BME280;11256;50.830;12.834;2023-12-04T04:07:33;97804.59;;;-3.63;77.77
22181;BME280;11256;50.830;12.834;2023-12-04T04:12:33;97796.38;;;-3.75;77.92
22181;BME280;11256;50.830;12.834;2023-12-04T04:17:34;97803.38;;;-3.67;77.79
22181;BME280;11256;50.830;12.834;2023-12-04T04:22:34;97792.06;;;-3.76;77.67
22181;BME280;11256;50.830;12.834;2023-12-04T04:27:38;97784.50;;;-3.79;77.70
22181;BME280;11256;50.830;12.834;2023-12-04T04:32:38;97789.91;;;-3.66;77.77
22181;BME280;11256;50.830;12.834;2023-12-04T04:37:38;97776.38;;;-3.77;77.77
22181;BME280;11256;50.830;12.834;2023-12-04T04:42:39;97776.69;;;-3.66;78.03
22181;BME280;11256;50.830;12.834;2023-12-04T04:47:39;97772.41;;;-3.67;78.05
22181;BME280;11256;50.830;12.834;2023-12-04T04:52:39;97763.44;;;-3.66;78.12
22181;BME280;11256;50.830;12.834;2023-12-04T04:57:39;97758.81;;;-3.64;77.89
22181;BME280;11256;50.830;12.834;2023-12-04T05:02:40;97753.88;;;-3.67;77.80
22181;BME280;11256;50.830;12.834;2023-12-04T05:07:40;97740.28;;;-3.64;78.47
22181;BME280;11256;50.830;12.834;2023-12-04T05:12:40;97728.94;;;-3.58;78.08
22181;BME280;11256;50.830;12.834;2023-12-04T05:17:41;97725.25;;;-3.57;77.87
22181;BME280;11256;50.830;12.834;2023-12-04T05:22:41;97712.66;;;-3.55;77.89
22181;BME280;11256;50.830;12.834;2023-12-04T05:27:41;97718.78;;;-3.54;77.85
22181;BME280;11256;50.830;12.834;2023-12-04T05:32:42;97703.06;;;-3.56;77.90
22181;BME280;11256;50.830;12.834;2023-12-04T05:37:42;97686.94;;;-3.61;77.79
22181;BME280;11256;50.830;12.834;2023-12-04T05:42:42;97697.53;;;-3.61;77.82
22181;BME280;11256;50.830;12.834;2023-12-04T05:47:43;97697.53;;;-3.61;77.66
22181;BME280;11256;50.830;12.834;2023-12-04T05:52:43;97687.78;;;-3.60;77.84
22181;BME280;11256;50.830;12.834;2023-12-04T05:57:44;97685.31;;;-3.62;78.15
22181;BME280;11256;50.830;12.834;2023-12-04T06:02:44;97678.38;;;-3.63;77.99
22181;BME280;11256;50.830;12.834;2023-12-04T06:07:45;97663.91;;;-3.67;77.73
22181;BME280;11256;50.830;12.834;2023-12-04T06:12:45;97664.91;;;-3.68;77.69
22181;BME280;11256;50.830;12.834;2023-12-04T06:17:46;97655.94;;;-3.67;78.10
22181;BME280;11256;50.830;12.834;2023-12-04T06:22:46;97655.59;;;-3.64;78.01
22181;BME280;11256;50.830;12.834;2023-12-04T06:27:47;97655.19;;;-3.61;77.90
22181;BME280;11256;50.830;12.834;2023-12-04T06:32:47;97654.94;;;-3.66;77.99
22181;BME280;11256;50.830;12.834;2023-12-04T06:37:48;97634.28;;;-3.77;78.10
22181;BME280;11256;50.830;12.834;2023-12-04T06:42:49;97652.28;;;-3.66;77.80
22181;BME280;11256;50.830;12.834;2023-12-04T06:47:50;97659.22;;;-3.65;77.96
22181;BME280;11256;50.830;12.834;2023-12-04T06:52:51;97650.03;;;-3.69;78.17
22181;BME280;11256;50.830;12.834;2023-12-04T06:57:51;97645.78;;;-3.70;77.88
22181;BME280;11256;50.830;12.834;2023-12-04T07:02:51;97640.06;;;-3.67;77.99
22181;BME280;11256;50.830;12.834;2023-12-04T07:07:53;97616.00;;;-3.78;78.02
22181;BME280;11256;50.830;12.834;2023-12-04T07:12:53;97627.66;;;-3.66;78.30
22181;BME280;11256;50.830;12.834;2023-12-04T07:17:53;97628.53;;;-3.59;78.09
22181;BME280;11256;50.830;12.834;2023-12-04T07:22:54;97625.69;;;-3.58;77.96
22181;BME280;11256;50.830;12.834;2023-12-04T07:27:54;97604.09;;;-3.61;78.13
22181;BME280;11256;50.830;12.834;2023-12-04T07:32:54;97625.16;;;-3.47;78.07
22181;BME280;11256;50.830;12.834;2023-12-04T07:37:55;97625.56;;;-3.43;78.09
22181;BME280;11256;50.830;12.834;2023-12-04T07:42:55;97626.00;;;-3.40;77.70
22181;BME280;11256;50.830;12.834;2023-12-04T07:47:55;97626.66;;;-3.31;77.57
22181;BME280;11256;50.830;12.834;2023-12-04T07:52:56;97626.72;;;-3.25;77.86
22181;BME280;11256;50.830;12.834;2023-12-04T07:57:56;97614.72;;;-3.21;77.91
22181;BME280;11256;50.830;12.834;2023-12-04T08:02:56;97626.63;;;-3.04;77.85
22181;BME280;11256;50.830;12.834;2023-12-04T08:07:57;97621.97;;;-2.89;77.24
22181;BME280;11256;50.830;12.834;2023-12-04T08:12:57;97628.59;;;-2.72;76.82
22181;BME280;11256;50.830;12.834;2023-12-04T08:17:58;97617.41;;;-2.54;76.33
22181;BME280;11256;50.830;12.834;2023-12-04T08:23:00;97621.34;;;-2.31;75.79
22181;BME280;11256;50.830;12.834;2023-12-04T08:28:00;97624.41;;;-2.08;75.82
22181;BME280;11256;50.830;12.834;2023-12-04T08:33:01;97610.75;;;-1.85;75.73
22181;BME280;11256;50.830;12.834;2023-12-04T08:38:01;97609.53;;;-1.63;75.37
22181;BME280;11256;50.830;12.834;2023-12-04T08:43:02;97599.50;;;-1.48;75.63
22181;BME280;11256;50.830;12.834;2023-12-04T08:48:04;97603.97;;;-1.36;73.40
22181;BME280;11256;50.830;12.834;2023-12-04T08:53:04;97606.41;;;-1.21;71.86
22181;BME280;11256;50.830;12.834;2023-12-04T08:58:05;97601.84;;;-1.08;72.76
22181;BME280;11256;50.830;12.834;2023-12-04T09:03:05;97607.31;;;-0.90;75.53
22181;BME280;11256;50.830;12.834;2023-12-04T09:08:05;97582.34;;;-0.89;74.29
22181;BME280;11256;50.830;12.834;2023-12-04T09:13:07;97594.75;;;-0.70;74.38
22181;BME280;11256;50.830;12.834;2023-12-04T09:18:07;97592.59;;;-0.55;76.28
22181;BME280;11256;50.830;12.834;2023-12-04T09:23:07;97576.22;;;-0.52;75.78
22181;BME280;11256;50.830;12.834;2023-12-04T09:28:07;97589.03;;;-0.36;74.36
22181;BME280;11256;50.830;12.834;2023-12-04T09:33:08;97581.63;;;-0.34;72.47
22181;BME280;11256;50.830;12.834;2023-12-04T09:38:09;97593.16;;;-0.09;71.13
22181;BME280;11256;50.830;12.834;2023-12-04T09:43:10;97590.53;;;0.09;70.44
22181;BME280;11256;50.830;12.834;2023-12-04T09:48:11;97581.59;;;0.28;68.72
22181;BME280;11256;50.830;12.834;2023-12-04T09:53:12;97575.97;;;0.36;65.38
22181;BME280;11256;50.830;12.834;2023-12-04T09:58:15;97580.75;;;0.52;65.74
22181;BME280;11256;50.830;12.834;2023-12-04T10:03:15;97570.75;;;0.65;66.33
22181;BME280;11256;50.830;12.834;2023-12-04T10:08:16;97565.56;;;0.88;68.13
22181;BME280;11256;50.830;12.834;2023-12-04T10:13:17;97546.53;;;0.85;70.26
22181;BME280;11256;50.830;12.834;2023-12-04T10:18:28;97541.94;;;0.92;70.40
22181;BME280;11256;50.830;12.834;2023-12-04T10:23:40;97543.72;;;0.98;70.88
22181;BME280;11256;50.830;12.834;2023-12-04T10:28:58;97513.66;;;0.91;71.65
22181;BME280;11256;50.830;12.834;2023-12-04T10:33:59;97519.84;;;1.03;71.88
22181;BME280;11256;50.830;12.834;2023-12-04T10:39:00;97499.19;;;0.98;72.70
22181;BME280;11256;50.830;12.834;2023-12-04T10:44:03;97506.66;;;1.08;72.77
22181;BME280;11256;50.830;12.834;2023-12-04T10:49:04;97491.47;;;1.08;73.18
22181;BME280;11256;50.830;12.834;2023-12-04T10:54:05;97478.38;;;1.07;72.02
22181;BME280;11256;50.830;12.834;2023-12-04T10:59:11;97466.34;;;1.16;72.74
22181;BME280;11256;50.830;12.834;2023-12-04T11:04:16;97473.72;;;1.32;69.67
22181;BME280;11256;50.830;12.834;2023-12-04T11:09:20;97460.25;;;1.38;68.38
22181;BME280;11256;50.830;12.834;2023-12-04T11:14:22;97459.59;;;1.43;65.66
22181;BME280;11256;50.830;12.834;2023-12-04T11:19:50;97452.50;;;1.48;65.75
22181;BME280;11256;50.830;12.834;2023-12-04T11:24:52;97437.31;;;1.49;65.61
22181;BME280;11256;50.830;12.834;2023-12-04T11:29:54;97427.22;;;1.51;64.19
22181;BME280;11256;50.830;12.834;2023-12-04T11:34:55;97431.19;;;1.60;64.96
22181;BME280;11256;50.830;12.834;2023-12-04T11:39:56;97402.16;;;1.52;62.87
22181;BME280;11256;50.830;12.834;2023-12-04T11:45:03;97401.94;;;1.65;66.50
22181;BME280;11256;50.830;12.834;2023-12-04T11:50:04;97408.44;;;1.69;59.99
22181;BME280;11256;50.830;12.834;2023-12-04T11:55:05;97400.66;;;1.79;64.65
22181;BME280;11256;50.830;12.834;2023-12-04T12:00:26;97402.88;;;1.82;65.43
22181;BME280;11256;50.830;12.834;2023-12-04T12:05:26;97393.59;;;1.84;67.52
22181;BME280;11256;50.830;12.834;2023-12-04T12:10:27;97394.50;;;1.90;68.38
22181;BME280;11256;50.830;12.834;2023-12-04T12:15:28;97380.13;;;1.91;66.06
22181;BME280;11256;50.830;12.834;2023-12-04T12:20:29;97381.84;;;1.97;68.24
22181;BME280;11256;50.830;12.834;2023-12-04T12:25:30;97370.69;;;2.00;68.31
22181;BME280;11256;50.830;12.834;2023-12-04T12:30:30;97356.16;;;1.96;68.62
22181;BME280;11256;50.830;12.834;2023-12-04T12:35:31;97349.47;;;1.93;69.09
22181;BME280;11256;50.830;12.834;2023-12-04T12:40:31;97328.09;;;1.82;62.77
22181;BME280;11256;50.830;12.834;2023-12-04T12:45:58;97331.09;;;1.85;66.34
22181;BME280;11256;50.830;12.834;2023-12-04T12:51:02;97305.34;;;1.68;64.48
22181;BME280;11256;50.830;12.834;2023-12-04T12:56:03;97315.34;;;1.72;66.27
22181;BME280;11256;50.830;12.834;2023-12-04T13:01:04;97308.72;;;1.63;60.09
22181;BME280;11256;50.830;12.834;2023-12-04T13:06:05;97302.00;;;1.61;62.03
22181;BME280;11256;50.830;12.834;2023-12-04T13:11:05;97287.97;;;1.54;62.03
22181;BME280;11256;50.830;12.834;2023-12-04T13:16:06;97283.91;;;1.51;62.88
22181;BME280;11256;50.830;12.834;2023-12-04T13:21:07;97270.22;;;1.48;62.27
22181;BME280;11256;50.830;12.834;2023-12-04T13:26:10;97254.53;;;1.40;62.20
22181;BME280;11256;50.830;12.834;2023-12-04T13:31:11;97265.81;;;1.42;64.57
22181;BME280;11256;50.830;12.834;2023-12-04T13:36:11;97267.78;;;1.46;65.41
22181;BME280;11256;50.830;12.834;2023-12-04T13:41:12;97268.72;;;1.40;65.61
22181;BME280;11256;50.830;12.834;2023-12-04T13:46:30;97254.53;;;1.40;65.62
22181;BME280;11256;50.830;12.834;2023-12-04T13:51:31;97239.94;;;1.31;65.83
22181;BME280;11256;50.830;12.834;2023-12-04T13:56:32;97234.63;;;1.31;65.85
22181;BME280;11256;50.830;12.834;2023-12-04T14:01:44;97231.13;;;1.30;63.35
22181;BME280;11256;50.830;12.834;2023-12-04T14:06:45;97214.53;;;1.28;63.33
22181;BME280;11256;50.830;12.834;2023-12-04T14:11:45;97205.59;;;1.23;62.99
22181;BME280;11256;50.830;12.834;2023-12-04T14:16:46;97199.44;;;1.22;64.79
22181;BME280;11256;50.830;12.834;2023-12-04T14:21:47;97179.31;;;1.15;62.04
22181;BME280;11256;50.830;12.834;2023-12-04T14:26:51;97193.31;;;1.22;63.21
22181;BME280;11256;50.830;12.834;2023-12-04T14:31:53;97209.78;;;1.19;64.30
22181;BME280;11256;50.830;12.834;2023-12-04T14:36:53;97192.16;;;1.18;64.69
22181;BME280;11256;50.830;12.834;2023-12-04T14:41:54;97188.91;;;1.16;64.04
22181;BME280;11256;50.830;12.834;2023-12-04T14:46:54;97180.13;;;1.04;60.60
22181;BME280;11256;50.830;12.834;2023-12-04T14:51:54;97174.53;;;1.05;64.65
22181;BME280;11256;50.830;12.834;2023-12-04T14:56:56;97165.25;;;1.08;65.55
22181;BME280;11256;50.830;12.834;2023-12-04T15:02:35;97159.56;;;1.04;63.98
22181;BME280;11256;50.830;12.834;2023-12-04T15:08:13;97156.22;;;0.97;62.99
22181;BME280;11256;50.830;12.834;2023-12-04T15:13:17;97156.72;;;0.83;60.71
22181;BME280;11256;50.830;12.834;2023-12-04T15:18:26;97133.88;;;0.75;61.83
22181;BME280;11256;50.830;12.834;2023-12-04T15:23:35;97142.56;;;0.82;64.61
22181;BME280;11256;50.830;12.834;2023-12-04T15:28:35;97138.03;;;0.71;60.93
22181;BME280;11256;50.830;12.834;2023-12-04T15:33:35;97120.53;;;0.41;59.21
22181;BME280;11256;50.830;12.834;2023-12-04T15:38:36;97107.09;;;0.36;61.03
22181;BME280;11256;50.830;12.834;2023-12-04T15:43:37;97120.09;;;0.44;63.09
22181;BME280;11256;50.830;12.834;2023-12-04T15:48:37;97106.63;;;0.39;64.04
22181;BME280;11256;50.830;12.834;2023-12-04T15:53:39;97102.13;;;0.28;61.69
22181;BME280;11256;50.830;12.834;2023-12-04T15:58:39;97104.31;;;0.31;62.43
22181;BME280;11256;50.830;12.834;2023-12-04T16:03:40;97079.06;;;0.22;63.31
22181;BME280;11256;50.830;12.834;2023-12-04T16:08:40;97084.84;;;0.19;61.86
22181;BME280;11256;50.830;12.834;2023-12-04T16:13:40;97100.81;;;0.19;62.80
22181;BME280;11256;50.830;12.834;2023-12-04T16:18:41;97074.41;;;0.06;60.14
22181;BME280;11256;50.830;12.834;2023-12-04T16:23:47;97054.94;;;-0.06;60.34
22181;BME280;11256;50.830;12.834;2023-12-04T16:28:47;97060.72;;;-0.09;61.81
22181;BME280;11256;50.830;12.834;2023-12-04T16:33:47;97051.13;;;-0.10;62.96
22181;BME280;11256;50.830;12.834;2023-12-04T16:38:49;97046.38;;;-0.08;62.86
22181;BME280;11256;50.830;12.834;2023-12-04T16:43:50;97032.69;;;-0.23;61.40
22181;BME280;11256;50.830;12.834;2023-12-04T16:48:50;97045.78;;;-0.22;63.30
22181;BME280;11256;50.830;12.834;2023-12-04T16:53:51;97039.06;;;-0.24;62.24
22181;BME280;11256;50.830;12.834;2023-12-04T16:58:51;97032.44;;;-0.33;64.42
22181;BME280;11256;50.830;12.834;2023-12-04T17:03:51;97027.34;;;-0.34;64.08
22181;BME280;11256;50.830;12.834;2023-12-04T17:08:52;97023.53;;;-0.38;63.78
22181;BME280;11256;50.830;12.834;2023-12-04T17:13:52;97024.22;;;-0.43;64.03
22181;BME280;11256;50.830;12.834;2023-12-04T17:18:53;97020.03;;;-0.50;63.17
22181;BME280;11256;50.830;12.834;2023-12-04T17:23:53;97032.84;;;-0.47;64.80
22181;BME280;11256;50.830;12.834;2023-12-04T17:28:54;97042.09;;;-0.50;65.21
22181;BME280;11256;50.830;12.834;2023-12-04T17:33:54;97044.06;;;-0.57;65.42
22181;BME280;11256;50.830;12.834;2023-12-04T17:38:55;97048.31;;;-0.56;65.37
22181;BME280;11256;50.830;12.834;2023-12-04T17:43:55;97056.78;;;-0.59;66.13
22181;BME280;11256;50.830;12.834;2023-12-04T17:48:56;97035.31;;;-0.75;65.17
22181;BME280;11256;50.830;12.834;2023-12-04T17:53:57;97044.69;;;-0.73;65.46
22181;BME280;11256;50.830;12.834;2023-12-04T17:58:58;97033.63;;;-0.70;67.29
22181;BME280;11256;50.830;12.834;2023-12-04T18:04:00;97030.59;;;-0.73;66.30
22181;BME280;11256;50.830;12.834;2023-12-04T18:09:02;97023.41;;;-0.73;68.31
22181;BME280;11256;50.830;12.834;2023-12-04T18:14:03;97014.72;;;-0.80;68.96
22181;BME280;11256;50.830;12.834;2023-12-04T18:19:04;97008.03;;;-0.71;69.07
22181;BME280;11256;50.830;12.834;2023-12-04T18:24:05;97001.09;;;-0.72;67.26
22181;BME280;11256;50.830;12.834;2023-12-04T18:29:05;97003.75;;;-0.72;66.45
22181;BME280;11256;50.830;12.834;2023-12-04T18:34:07;96998.91;;;-0.75;67.17
22181;BME280;11256;50.830;12.834;2023-12-04T18:39:09;97008.94;;;-0.77;66.09
22181;BME280;11256;50.830;12.834;2023-12-04T18:44:12;97011.47;;;-0.82;66.72
22181;BME280;11256;50.830;12.834;2023-12-04T18:49:14;97009.28;;;-0.85;66.58
22181;BME280;11256;50.830;12.834;2023-12-04T18:54:16;97000.13;;;-0.89;65.82
22181;BME280;11256;50.830;12.834;2023-12-04T18:59:16;96985.53;;;-0.98;66.20
22181;BME280;11256;50.830;12.834;2023-12-04T19:04:16;96992.13;;;-1.00;68.57
22181;BME280;11256;50.830;12.834;2023-12-04T19:09:17;96991.28;;;-1.01;67.79
22181;BME280;11256;50.830;12.834;2023-12-04T19:14:18;97002.41;;;-0.92;69.12
22181;BME280;11256;50.830;12.834;2023-12-04T19:19:18;96989.97;;;-0.92;67.31
22181;BME280;11256;50.830;12.834;2023-12-04T19:24:18;96974.53;;;-1.01;68.32
22181;BME280;11256;50.830;12.834;2023-12-04T19:29:20;96978.16;;;-0.96;67.81
22181;BME280;11256;50.830;12.834;2023-12-04T19:34:20;96979.97;;;-0.96;69.08
22181;BME280;11256;50.830;12.834;2023-12-04T19:39:20;96972.00;;;-0.96;68.04
22181;BME280;11256;50.830;12.834;2023-12-04T19:44:21;96954.09;;;-1.01;69.01
22181;BME280;11256;50.830;12.834;2023-12-04T19:49:24;96963.81;;;-0.95;70.11
22181;BME280;11256;50.830;12.834;2023-12-04T19:54:25;96957.31;;;-0.99;68.33
22181;BME280;11256;50.830;12.834;2023-12-04T19:59:25;96943.81;;;-0.97;69.62
22181;BME280;11256;50.830;12.834;2023-12-04T20:04:25;96936.06;;;-0.99;68.63
22181;BME280;11256;50.830;12.834;2023-12-04T20:09:28;96927.50;;;-1.01;69.45
22181;BME280;11256;50.830;12.834;2023-12-04T20:14:29;96917.31;;;-1.04;68.28
22181;BME280;11256;50.830;12.834;2023-12-04T20:19:29;96898.59;;;-1.09;69.15
22181;BME280;11256;50.830;12.834;2023-12-04T20:24:29;96921.63;;;-1.03;67.93
22181;BME280;11256;50.830;12.834;2023-12-04T20:29:30;96920.44;;;-1.07;67.50
22181;BME280;11256;50.830;12.834;2023-12-04T20:34:30;96920.44;;;-1.07;69.30
22181;BME280;11256;50.830;12.834;2023-12-04T20:39:31;96913.03;;;-1.05;69.71
22181;BME280;11256;50.830;12.834;2023-12-04T20:44:32;96913.66;;;-1.03;69.19
22181;BME280;11256;50.830;12.834;2023-12-04T20:49:34;96908.34;;;-1.03;68.80
22181;BME280;11256;50.830;12.834;2023-12-04T20:54:34;96868.00;;;-1.11;69.71
22181;BME280;11256;50.830;12.834;2023-12-04T20:59:35;96878.19;;;-0.97;68.55
22181;BME280;11256;50.830;12.834;2023-12-04T21:04:35;96879.88;;;-1.02;70.09
22181;BME280;11256;50.830;12.834;2023-12-04T21:09:36;96884.53;;;-0.98;69.75
22181;BME280;11256;50.830;12.834;2023-12-04T21:14:38;96886.16;;;-0.97;69.25
22181;BME280;11256;50.830;12.834;2023-12-04T21:19:38;96896.31;;;-0.94;69.40
22181;BME280;11256;50.830;12.834;2023-12-04T21:24:39;96891.81;;;-0.93;68.47
22181;BME280;11256;50.830;12.834;2023-12-04T21:29:39;96891.00;;;-0.94;68.85
22181;BME280;11256;50.830;12.834;2023-12-04T21:34:39;96876.56;;;-0.98;68.22
22181;BME280;11256;50.830;12.834;2023-12-04T21:39:43;96881.41;;;-0.95;68.89
22181;BME280;11256;50.830;12.834;2023-12-04T21:44:44;96841.28;;;-1.05;68.30
22181;BME280;11256;50.830;12.834;2023-12-04T21:49:45;96865.34;;;-1.00;68.74
22181;BME280;11256;50.830;12.834;2023-12-04T21:54:45;96832.84;;;-1.13;68.68
22181;BME280;11256;50.830;12.834;2023-12-04T21:59:46;96840.13;;;-1.09;69.42
22181;BME280;11256;50.830;12.834;2023-12-04T22:04:46;96857.25;;;-1.05;68.74
22181;BME280;11256;50.830;12.834;2023-12-04T22:09:48;96861.63;;;-0.99;68.16
22181;BME280;11256;50.830;12.834;2023-12-04T22:14:48;96852.84;;;-1.11;69.79
22181;BME280;11256;50.830;12.834;2023-12-04T22:19:48;96840.84;;;-1.02;70.53
22181;BME280;11256;50.830;12.834;2023-12-04T22:24:49;96848.59;;;-0.89;70.65
22181;BME280;11256;50.830;12.834;2023-12-04T22:29:49;96874.13;;;-0.88;71.76
22181;BME280;11256;50.830;12.834;2023-12-04T22:34:49;96843.28;;;-0.89;69.32
22181;BME280;11256;50.830;12.834;2023-12-04T22:39:50;96817.97;;;-1.03;68.96
22181;BME280;11256;50.830;12.834;2023-12-04T22:44:50;96833.53;;;-1.18;70.21
22181;BME280;11256;50.830;12.834;2023-12-04T22:49:50;96832.28;;;-1.04;68.77
22181;BME280;11256;50.830;12.834;2023-12-04T22:54:50;96833.19;;;-1.10;68.19
22181;BME280;11256;50.830;12.834;2023-12-04T22:59:51;96823.34;;;-1.21;68.53
22181;BME280;11256;50.830;12.834;2023-12-04T23:04:51;96816.56;;;-1.17;68.46
22181;BME280;11256;50.830;12.834;2023-12-04T23:09:51;96836.63;;;-1.21;70.22
22181;BME280;11256;50.830;12.834;2023-12-04T23:14:52;96846.81;;;-1.18;71.28
22181;BME280;11256;50.830;12.834;2023-12-04T23:19:52;96831.09;;;-1.19;69.84
22181;BME280;11256;50.830;12.834;2023-12-04T23:24:52;96810.16;;;-1.39;70.39
22181;BME280;11256;50.830;12.834;2023-12-04T23:29:53;96831.06;;;-1.31;71.60
22181;BME280;11256;50.830;12.834;2023-12-04T23:34:53;96834.31;;;-1.29;69.11
22181;BME280;11256;50.830;12.834;2023-12-04T23:39:53;96850.69;;;-1.32;70.65
22181;BME280;11256;50.830;12.834;2023-12-04T23:44:54;96834.19;;;-1.34;71.05
22181;BME280;11256;50.830;12.834;2023-12-04T23:49:54;96831.97;;;-1.37;69.44
22181;BME280;11256;50.830;12.834;2023-12-04T23:54:55;96833.22;;;-1.39;70.65
22181;BME280;11256;50.830;12.834;2023-12-04T23:59:55;96815.34;;;-1.44;69.80
